メインページ
METAR-TAF:

METAR-TAF

空港 :

エセンボーア国際空港

アンカラ-エセンボーア, トルコ

緯度: 40-07N, 経度: 032-59E, 海抜: 953m

現時点の気象観測

当レポートは38分前の08:50(UTC)に作成
北/北東の風 10kt、北/北西から東/北東の間で変化する
気温 28°C
湿度 20%
気圧 1015 hPa
視程10km以上
高度4000ftの雲はほとんどない

METAR: LTAC 190850Z 03010KT 340V070 9999 FEW040 28/03 Q1015 NOSIG RMK RWY21L 03010KT 350V070 RWY03L 05009KT 010V090 RWY21R 05010KT 360V080

時間: 12:28 (09:28 UTC)

予報

当レポートは2時間8分前の07:20(UTC)に作成
予報は19日の 07時(UTC)から 20日の 06時(UTC)まで有効
北東の風 12kt
視程10km以上
高度4000ftの雲は散在している
19日の 17時(UTC)から 19日の 19時(UTC)まで徐々に
変向風 2kt
視程10km以上
1,500メートル以下は雲なし、積乱雲なし

TAF: LTAC 190720Z 1907/2006 04012KT 9999 SCT040 BECMG 1917/1919 VRB02KT CAVOK

4,000以上の空港の気象観測と天気予報(METAR報とTAF報)

利用可能な観測所は地図上に黄色い丸と赤い丸で示す。

丸の上にカーソルを重ねると観測所名を参照できる。

次にクリックすると気象観測と天気予報を参照できる。

マップの切り替え:黒色「×」印の緑ボタンをクリックして拡大、「-」印の緑ボタンをクリックして縮小、緑色の三角印をクリックして隣りの地図に切り替え


METAR-TAF: